sensor_id;sensor_type;location;lat;lon;timestamp;temperature;humidity
22682;DHT22;11508;50.856;4.380;2022-12-07T00:02:07;5.80;99.90
22682;DHT22;11508;50.856;4.380;2022-12-07T00:04:32;5.80;99.90
22682;DHT22;11508;50.856;4.380;2022-12-07T00:06:58;5.80;99.90
22682;DHT22;11508;50.856;4.380;2022-12-07T00:09:24;5.70;99.90
22682;DHT22;11508;50.856;4.380;2022-12-07T00:11:50;5.60;99.90
22682;DHT22;11508;50.856;4.380;2022-12-07T00:14:17;5.50;99.90
22682;DHT22;11508;50.856;4.380;2022-12-07T00:16:43;5.50;99.90
22682;DHT22;11508;50.856;4.380;2022-12-07T00:19:11;5.40;99.90
22682;DHT22;11508;50.856;4.380;2022-12-07T00:21:37;5.50;99.90
22682;DHT22;11508;50.856;4.380;2022-12-07T00:24:04;5.60;99.90
22682;DHT22;11508;50.856;4.380;2022-12-07T00:26:33;5.60;99.90
22682;DHT22;11508;50.856;4.380;2022-12-07T00:29:02;5.60;99.90
22682;DHT22;11508;50.856;4.380;2022-12-07T00:31:30;5.60;99.90
22682;DHT22;11508;50.856;4.380;2022-12-07T00:33:57;5.50;99.90
22682;DHT22;11508;50.856;4.380;2022-12-07T00:36:24;5.40;99.90
22682;DHT22;11508;50.856;4.380;2022-12-07T00:38:50;5.50;99.90
22682;DHT22;11508;50.856;4.380;2022-12-07T00:41:18;5.50;99.90
22682;DHT22;11508;50.856;4.380;2022-12-07T00:43:46;5.40;99.90
22682;DHT22;11508;50.856;4.380;2022-12-07T00:46:12;5.30;99.90
22682;DHT22;11508;50.856;4.380;2022-12-07T00:48:39;5.30;99.90
22682;DHT22;11508;50.856;4.380;2022-12-07T00:51:05;5.30;99.90
22682;DHT22;11508;50.856;4.380;2022-12-07T00:53:33;5.30;99.90
22682;DHT22;11508;50.856;4.380;2022-12-07T00:56:05;5.30;99.90
22682;DHT22;11508;50.856;4.380;2022-12-07T00:58:31;5.30;99.90
22682;DHT22;11508;50.856;4.380;2022-12-07T01:01:00;5.20;99.90
22682;DHT22;11508;50.856;4.380;2022-12-07T01:03:27;5.30;99.90
22682;DHT22;11508;50.856;4.380;2022-12-07T01:05:54;5.20;99.90
22682;DHT22;11508;50.856;4.380;2022-12-07T01:08:21;5.20;99.90
22682;DHT22;11508;50.856;4.380;2022-12-07T01:10:47;5.20;99.90
22682;DHT22;11508;50.856;4.380;2022-12-07T01:13:14;5.10;99.90
22682;DHT22;11508;50.856;4.380;2022-12-07T01:15:41;5.10;99.90
22682;DHT22;11508;50.856;4.380;2022-12-07T01:18:07;5.10;99.90
22682;DHT22;11508;50.856;4.380;2022-12-07T01:20:33;5.10;99.90
22682;DHT22;11508;50.856;4.380;2022-12-07T01:22:58;5.00;99.90
22682;DHT22;11508;50.856;4.380;2022-12-07T01:25:24;5.00;99.90
22682;DHT22;11508;50.856;4.380;2022-12-07T01:27:50;5.00;99.90
22682;DHT22;11508;50.856;4.380;2022-12-07T01:30:15;5.00;99.90
22682;DHT22;11508;50.856;4.380;2022-12-07T01:32:41;5.10;99.90
22682;DHT22;11508;50.856;4.380;2022-12-07T01:35:07;5.10;99.90
22682;DHT22;11508;50.856;4.380;2022-12-07T01:37:37;5.20;99.90
22682;DHT22;11508;50.856;4.380;2022-12-07T01:40:05;5.20;99.90
22682;DHT22;11508;50.856;4.380;2022-12-07T01:42:32;5.30;99.90
22682;DHT22;11508;50.856;4.380;2022-12-07T01:47:45;5.30;99.90
22682;DHT22;11508;50.856;4.380;2022-12-07T01:50:12;5.20;99.90
22682;DHT22;11508;50.856;4.380;2022-12-07T01:52:39;5.20;99.90
22682;DHT22;11508;50.856;4.380;2022-12-07T01:55:12;5.20;99.90
22682;DHT22;11508;50.856;4.380;2022-12-07T01:57:43;5.20;99.90
22682;DHT22;11508;50.856;4.380;2022-12-07T02:00:12;5.20;99.90
22682;DHT22;11508;50.856;4.380;2022-12-07T02:02:59;5.30;99.90
22682;DHT22;11508;50.856;4.380;2022-12-07T02:05:27;5.30;99.90
22682;DHT22;11508;50.856;4.380;2022-12-07T02:07:55;5.30;99.90
22682;DHT22;11508;50.856;4.380;2022-12-07T02:10:24;5.20;99.90
22682;DHT22;11508;50.856;4.380;2022-12-07T02:12:54;5.20;99.90
22682;DHT22;11508;50.856;4.380;2022-12-07T02:15:22;5.20;99.90
22682;DHT22;11508;50.856;4.380;2022-12-07T02:18:49;5.20;99.90
22682;DHT22;11508;50.856;4.380;2022-12-07T02:26:21;5.20;99.90
22682;DHT22;11508;50.856;4.380;2022-12-07T02:29:12;5.20;99.90
22682;DHT22;11508;50.856;4.380;2022-12-07T02:31:44;5.30;99.90
22682;DHT22;11508;50.856;4.380;2022-12-07T02:36:46;5.50;99.90
22682;DHT22;11508;50.856;4.380;2022-12-07T02:39:20;5.40;99.90
22682;DHT22;11508;50.856;4.380;2022-12-07T02:41:52;5.30;99.90
22682;DHT22;11508;50.856;4.380;2022-12-07T02:44:25;5.20;99.90
22682;DHT22;11508;50.856;4.380;2022-12-07T02:46:57;5.20;99.90
22682;DHT22;11508;50.856;4.380;2022-12-07T02:49:26;5.20;99.90
22682;DHT22;11508;50.856;4.380;2022-12-07T02:51:53;5.20;99.90
22682;DHT22;11508;50.856;4.380;2022-12-07T02:54:20;5.30;99.90
22682;DHT22;11508;50.856;4.380;2022-12-07T03:02:16;5.30;99.90
22682;DHT22;11508;50.856;4.380;2022-12-07T03:07:30;5.20;99.90
22682;DHT22;11508;50.856;4.380;2022-12-07T03:10:01;5.10;99.90
22682;DHT22;11508;50.856;4.380;2022-12-07T03:18:03;5.00;99.90
22682;DHT22;11508;50.856;4.380;2022-12-07T03:20:31;5.00;99.90
22682;DHT22;11508;50.856;4.380;2022-12-07T03:22:59;4.90;99.90
22682;DHT22;11508;50.856;4.380;2022-12-07T03:25:26;4.90;99.90
22682;DHT22;11508;50.856;4.380;2022-12-07T03:30:23;4.80;99.90
22682;DHT22;11508;50.856;4.380;2022-12-07T03:33:03;4.80;99.90
22682;DHT22;11508;50.856;4.380;2022-12-07T03:35:43;4.90;99.90
22682;DHT22;11508;50.856;4.380;2022-12-07T03:43:48;4.80;99.90
22682;DHT22;11508;50.856;4.380;2022-12-07T03:46:19;4.80;99.90
22682;DHT22;11508;50.856;4.380;2022-12-07T03:49:09;4.90;99.90
22682;DHT22;11508;50.856;4.380;2022-12-07T03:51:59;5.00;99.90
22682;DHT22;11508;50.856;4.380;2022-12-07T03:54:39;5.00;99.90
22682;DHT22;11508;50.856;4.380;2022-12-07T03:57:07;5.00;99.90
22682;DHT22;11508;50.856;4.380;2022-12-07T03:59:33;5.00;99.90
22682;DHT22;11508;50.856;4.380;2022-12-07T04:02:05;5.10;99.90
22682;DHT22;11508;50.856;4.380;2022-12-07T04:04:31;5.00;99.90
22682;DHT22;11508;50.856;4.380;2022-12-07T04:06:56;5.00;99.90
22682;DHT22;11508;50.856;4.380;2022-12-07T04:09:22;4.90;99.90
22682;DHT22;11508;50.856;4.380;2022-12-07T04:11:48;4.80;99.90
22682;DHT22;11508;50.856;4.380;2022-12-07T04:14:14;4.80;99.90
22682;DHT22;11508;50.856;4.380;2022-12-07T04:16:50;4.80;99.90
22682;DHT22;11508;50.856;4.380;2022-12-07T04:19:20;4.80;99.90
22682;DHT22;11508;50.856;4.380;2022-12-07T04:21:47;4.80;99.90
22682;DHT22;11508;50.856;4.380;2022-12-07T04:24:14;4.80;99.90
22682;DHT22;11508;50.856;4.380;2022-12-07T04:26:40;4.80;99.90
22682;DHT22;11508;50.856;4.380;2022-12-07T04:29:06;4.80;99.90
22682;DHT22;11508;50.856;4.380;2022-12-07T04:31:32;4.70;99.90
22682;DHT22;11508;50.856;4.380;2022-12-07T04:33:58;4.70;99.90
22682;DHT22;11508;50.856;4.380;2022-12-07T04:36:24;4.60;99.90
22682;DHT22;11508;50.856;4.380;2022-12-07T04:38:50;4.60;99.90
22682;DHT22;11508;50.856;4.380;2022-12-07T04:41:18;4.60;99.90
22682;DHT22;11508;50.856;4.380;2022-12-07T04:43:43;4.60;99.90
22682;DHT22;11508;50.856;4.380;2022-12-07T04:46:09;4.60;99.90
22682;DHT22;11508;50.856;4.380;2022-12-07T04:48:35;4.70;99.90
22682;DHT22;11508;50.856;4.380;2022-12-07T04:51:02;4.70;99.90
22682;DHT22;11508;50.856;4.380;2022-12-07T04:53:29;4.90;99.90
22682;DHT22;11508;50.856;4.380;2022-12-07T04:55:54;4.90;99.90
22682;DHT22;11508;50.856;4.380;2022-12-07T04:58:20;4.90;99.90
22682;DHT22;11508;50.856;4.380;2022-12-07T05:00:46;4.90;99.90
22682;DHT22;11508;50.856;4.380;2022-12-07T05:03:11;4.80;99.90
22682;DHT22;11508;50.856;4.380;2022-12-07T05:05:40;4.80;99.90
22682;DHT22;11508;50.856;4.380;2022-12-07T05:08:06;4.80;99.90
22682;DHT22;11508;50.856;4.380;2022-12-07T05:10:32;4.80;99.90
22682;DHT22;11508;50.856;4.380;2022-12-07T05:12:58;4.80;99.90
22682;DHT22;11508;50.856;4.380;2022-12-07T05:15:24;4.80;99.90
22682;DHT22;11508;50.856;4.380;2022-12-07T05:17:49;4.80;99.90
22682;DHT22;11508;50.856;4.380;2022-12-07T05:20:17;4.90;99.90
22682;DHT22;11508;50.856;4.380;2022-12-07T05:22:43;4.90;99.90
22682;DHT22;11508;50.856;4.380;2022-12-07T05:25:09;4.70;99.90
22682;DHT22;11508;50.856;4.380;2022-12-07T05:27:34;4.60;99.90
22682;DHT22;11508;50.856;4.380;2022-12-07T05:30:00;4.60;99.90
22682;DHT22;11508;50.856;4.380;2022-12-07T05:32:26;4.60;99.90
22682;DHT22;11508;50.856;4.380;2022-12-07T05:34:51;4.80;99.90
22682;DHT22;11508;50.856;4.380;2022-12-07T05:37:20;4.90;99.90
22682;DHT22;11508;50.856;4.380;2022-12-07T05:39:45;4.90;99.90
22682;DHT22;11508;50.856;4.380;2022-12-07T05:42:11;4.90;99.90
22682;DHT22;11508;50.856;4.380;2022-12-07T05:44:41;4.90;99.90
22682;DHT22;11508;50.856;4.380;2022-12-07T05:47:07;4.80;99.90
22682;DHT22;11508;50.856;4.380;2022-12-07T05:49:33;4.80;99.90
22682;DHT22;11508;50.856;4.380;2022-12-07T05:51:58;4.80;99.90
22682;DHT22;11508;50.856;4.380;2022-12-07T05:54:24;4.70;99.90
22682;DHT22;11508;50.856;4.380;2022-12-07T05:56:50;4.80;99.90
22682;DHT22;11508;50.856;4.380;2022-12-07T05:59:16;4.80;99.90
22682;DHT22;11508;50.856;4.380;2022-12-07T06:01:53;4.90;99.90
22682;DHT22;11508;50.856;4.380;2022-12-07T06:04:20;4.90;99.90
22682;DHT22;11508;50.856;4.380;2022-12-07T06:06:46;5.00;99.90
22682;DHT22;11508;50.856;4.380;2022-12-07T06:09:12;5.10;99.90
22682;DHT22;11508;50.856;4.380;2022-12-07T06:11:39;5.00;99.90
22682;DHT22;11508;50.856;4.380;2022-12-07T06:14:23;5.00;99.90
22682;DHT22;11508;50.856;4.380;2022-12-07T06:16:49;5.00;99.90
22682;DHT22;11508;50.856;4.380;2022-12-07T06:19:15;5.10;99.90
22682;DHT22;11508;50.856;4.380;2022-12-07T06:21:41;5.10;99.90
22682;DHT22;11508;50.856;4.380;2022-12-07T06:24:08;5.30;99.90
22682;DHT22;11508;50.856;4.380;2022-12-07T06:26:34;5.30;99.90
22682;DHT22;11508;50.856;4.380;2022-12-07T06:29:00;5.20;99.90
22682;DHT22;11508;50.856;4.380;2022-12-07T06:31:26;5.10;99.90
22682;DHT22;11508;50.856;4.380;2022-12-07T06:33:56;4.90;99.90
22682;DHT22;11508;50.856;4.380;2022-12-07T06:36:22;4.90;99.90
22682;DHT22;11508;50.856;4.380;2022-12-07T06:38:48;4.90;99.90
22682;DHT22;11508;50.856;4.380;2022-12-07T06:41:13;5.00;99.90
22682;DHT22;11508;50.856;4.380;2022-12-07T06:43:39;5.00;99.90
22682;DHT22;11508;50.856;4.380;2022-12-07T06:46:05;5.10;99.90
22682;DHT22;11508;50.856;4.380;2022-12-07T06:48:30;5.10;99.90
22682;DHT22;11508;50.856;4.380;2022-12-07T06:50:56;5.20;99.90
22682;DHT22;11508;50.856;4.380;2022-12-07T06:53:22;5.30;99.90
22682;DHT22;11508;50.856;4.380;2022-12-07T06:55:49;5.40;99.90
22682;DHT22;11508;50.856;4.380;2022-12-07T06:58:14;5.30;99.90
22682;DHT22;11508;50.856;4.380;2022-12-07T07:00:40;5.30;99.90
22682;DHT22;11508;50.856;4.380;2022-12-07T07:03:06;5.30;99.90
22682;DHT22;11508;50.856;4.380;2022-12-07T07:05:32;5.40;99.90
22682;DHT22;11508;50.856;4.380;2022-12-07T07:07:58;5.40;99.90
22682;DHT22;11508;50.856;4.380;2022-12-07T07:10:24;5.40;99.90
22682;DHT22;11508;50.856;4.380;2022-12-07T07:12:49;5.30;99.90
22682;DHT22;11508;50.856;4.380;2022-12-07T07:15:15;5.30;99.90
22682;DHT22;11508;50.856;4.380;2022-12-07T07:17:41;5.30;99.90
22682;DHT22;11508;50.856;4.380;2022-12-07T07:20:07;5.20;99.90
22682;DHT22;11508;50.856;4.380;2022-12-07T07:22:33;5.20;99.90
22682;DHT22;11508;50.856;4.380;2022-12-07T07:24:59;5.10;99.90
22682;DHT22;11508;50.856;4.380;2022-12-07T07:27:25;5.10;99.90
22682;DHT22;11508;50.856;4.380;2022-12-07T07:29:52;5.10;99.90
22682;DHT22;11508;50.856;4.380;2022-12-07T07:32:18;5.00;99.90
22682;DHT22;11508;50.856;4.380;2022-12-07T07:34:43;5.00;99.90
22682;DHT22;11508;50.856;4.380;2022-12-07T07:37:09;4.90;99.90
22682;DHT22;11508;50.856;4.380;2022-12-07T07:39:38;4.90;99.90
22682;DHT22;11508;50.856;4.380;2022-12-07T07:42:04;5.00;99.90
22682;DHT22;11508;50.856;4.380;2022-12-07T07:44:30;5.10;99.90
22682;DHT22;11508;50.856;4.380;2022-12-07T07:46:56;5.10;99.90
22682;DHT22;11508;50.856;4.380;2022-12-07T07:49:22;5.00;99.90
22682;DHT22;11508;50.856;4.380;2022-12-07T07:51:48;5.00;99.90
22682;DHT22;11508;50.856;4.380;2022-12-07T07:54:13;5.00;99.90
22682;DHT22;11508;50.856;4.380;2022-12-07T07:56:39;5.10;99.90
22682;DHT22;11508;50.856;4.380;2022-12-07T07:59:05;5.20;99.90
22682;DHT22;11508;50.856;4.380;2022-12-07T08:01:31;5.10;99.90
22682;DHT22;11508;50.856;4.380;2022-12-07T08:03:57;5.20;99.90
22682;DHT22;11508;50.856;4.380;2022-12-07T08:06:23;5.20;99.90
22682;DHT22;11508;50.856;4.380;2022-12-07T08:08:49;5.10;99.90
22682;DHT22;11508;50.856;4.380;2022-12-07T08:11:15;5.10;99.90
22682;DHT22;11508;50.856;4.380;2022-12-07T08:13:41;5.10;99.90
22682;DHT22;11508;50.856;4.380;2022-12-07T08:16:09;5.10;99.90
22682;DHT22;11508;50.856;4.380;2022-12-07T08:18:40;5.10;99.90
22682;DHT22;11508;50.856;4.380;2022-12-07T08:21:07;5.00;99.90
22682;DHT22;11508;50.856;4.380;2022-12-07T08:23:35;5.00;99.90
22682;DHT22;11508;50.856;4.380;2022-12-07T08:26:06;5.00;99.90
22682;DHT22;11508;50.856;4.380;2022-12-07T08:28:32;5.10;99.90
22682;DHT22;11508;50.856;4.380;2022-12-07T08:31:00;5.10;99.90
22682;DHT22;11508;50.856;4.380;2022-12-07T08:33:27;5.10;99.90
22682;DHT22;11508;50.856;4.380;2022-12-07T08:35:53;5.10;99.90
22682;DHT22;11508;50.856;4.380;2022-12-07T08:38:19;5.10;99.90
22682;DHT22;11508;50.856;4.380;2022-12-07T08:40:45;5.10;99.90
22682;DHT22;11508;50.856;4.380;2022-12-07T08:43:11;5.00;99.90
22682;DHT22;11508;50.856;4.380;2022-12-07T08:45:40;5.00;99.90
22682;DHT22;11508;50.856;4.380;2022-12-07T08:48:08;5.00;99.90
22682;DHT22;11508;50.856;4.380;2022-12-07T08:50:38;5.00;99.90
22682;DHT22;11508;50.856;4.380;2022-12-07T08:53:04;5.20;99.90
22682;DHT22;11508;50.856;4.380;2022-12-07T08:55:32;5.30;99.90
22682;DHT22;11508;50.856;4.380;2022-12-07T08:57:59;5.40;99.90
22682;DHT22;11508;50.856;4.380;2022-12-07T09:00:26;5.50;99.90
22682;DHT22;11508;50.856;4.380;2022-12-07T09:02:52;5.60;99.90
22682;DHT22;11508;50.856;4.380;2022-12-07T09:05:18;5.50;99.90
22682;DHT22;11508;50.856;4.380;2022-12-07T09:07:47;5.50;99.90
22682;DHT22;11508;50.856;4.380;2022-12-07T09:10:13;5.40;99.90
22682;DHT22;11508;50.856;4.380;2022-12-07T09:12:39;5.30;99.90
22682;DHT22;11508;50.856;4.380;2022-12-07T09:15:06;5.30;99.90
22682;DHT22;11508;50.856;4.380;2022-12-07T09:17:33;5.40;99.90
22682;DHT22;11508;50.856;4.380;2022-12-07T09:19:59;5.60;99.90
22682;DHT22;11508;50.856;4.380;2022-12-07T09:22:30;5.60;99.90
22682;DHT22;11508;50.856;4.380;2022-12-07T09:24:57;5.60;99.90
22682;DHT22;11508;50.856;4.380;2022-12-07T09:27:23;5.60;99.90
22682;DHT22;11508;50.856;4.380;2022-12-07T09:29:49;5.70;99.90
22682;DHT22;11508;50.856;4.380;2022-12-07T09:32:15;5.70;99.90
22682;DHT22;11508;50.856;4.380;2022-12-07T09:34:41;5.80;99.90
22682;DHT22;11508;50.856;4.380;2022-12-07T09:37:07;5.90;99.90
22682;DHT22;11508;50.856;4.380;2022-12-07T09:39:34;5.90;99.90
22682;DHT22;11508;50.856;4.380;2022-12-07T09:42:04;5.90;99.90
22682;DHT22;11508;50.856;4.380;2022-12-07T09:44:30;5.90;99.90
22682;DHT22;11508;50.856;4.380;2022-12-07T09:47:05;5.90;99.90
22682;DHT22;11508;50.856;4.380;2022-12-07T09:49:32;5.90;99.90
22682;DHT22;11508;50.856;4.380;2022-12-07T09:52:15;5.90;99.90
22682;DHT22;11508;50.856;4.380;2022-12-07T09:54:47;5.90;99.90
22682;DHT22;11508;50.856;4.380;2022-12-07T09:57:14;5.80;99.90
22682;DHT22;11508;50.856;4.380;2022-12-07T09:59:40;5.90;99.90
22682;DHT22;11508;50.856;4.380;2022-12-07T10:02:40;5.90;99.90
22682;DHT22;11508;50.856;4.380;2022-12-07T10:05:15;6.00;99.90
22682;DHT22;11508;50.856;4.380;2022-12-07T10:07:42;6.30;99.90
22682;DHT22;11508;50.856;4.380;2022-12-07T10:10:17;6.40;99.90
22682;DHT22;11508;50.856;4.380;2022-12-07T10:12:59;6.60;99.90
22682;DHT22;11508;50.856;4.380;2022-12-07T10:15:47;6.80;99.90
22682;DHT22;11508;50.856;4.380;2022-12-07T10:18:42;6.80;99.90
22682;DHT22;11508;50.856;4.380;2022-12-07T10:21:18;6.50;99.90
22682;DHT22;11508;50.856;4.380;2022-12-07T10:26:50;6.40;99.90
22682;DHT22;11508;50.856;4.380;2022-12-07T10:29:37;6.20;99.90
22682;DHT22;11508;50.856;4.380;2022-12-07T10:35:19;6.30;99.90
22682;DHT22;11508;50.856;4.380;2022-12-07T10:37:47;6.30;99.90
22682;DHT22;11508;50.856;4.380;2022-12-07T10:40:34;6.50;99.90
22682;DHT22;11508;50.856;4.380;2022-12-07T10:45:32;6.50;99.90
22682;DHT22;11508;50.856;4.380;2022-12-07T10:57:00;6.20;99.90
22682;DHT22;11508;50.856;4.380;2022-12-07T11:02:23;6.30;99.90
22682;DHT22;11508;50.856;4.380;2022-12-07T11:13:21;6.70;99.90
22682;DHT22;11508;50.856;4.380;2022-12-07T11:15:57;6.70;99.90
22682;DHT22;11508;50.856;4.380;2022-12-07T11:21:18;6.90;99.90
22682;DHT22;11508;50.856;4.380;2022-12-07T11:26:57;6.70;99.90
22682;DHT22;11508;50.856;4.380;2022-12-07T11:32:44;6.40;99.90
22682;DHT22;11508;50.856;4.380;2022-12-07T11:35:24;6.50;99.90
22682;DHT22;11508;50.856;4.380;2022-12-07T11:37:57;6.50;99.90
22682;DHT22;11508;50.856;4.380;2022-12-07T11:40:30;6.60;99.90
22682;DHT22;11508;50.856;4.380;2022-12-07T11:43:05;6.70;99.90
22682;DHT22;11508;50.856;4.380;2022-12-07T11:45:37;6.80;99.90
22682;DHT22;11508;50.856;4.380;2022-12-07T11:48:28;6.80;99.90
22682;DHT22;11508;50.856;4.380;2022-12-07T11:50:58;6.80;99.90
22682;DHT22;11508;50.856;4.380;2022-12-07T11:58:51;6.60;99.90
22682;DHT22;11508;50.856;4.380;2022-12-07T12:04:53;6.70;99.90
22682;DHT22;11508;50.856;4.380;2022-12-07T12:07:25;6.70;99.90
22682;DHT22;11508;50.856;4.380;2022-12-07T12:09:59;6.90;99.90
22682;DHT22;11508;50.856;4.380;2022-12-07T12:15:40;6.90;99.90
22682;DHT22;11508;50.856;4.380;2022-12-07T12:21:01;6.90;99.90
22682;DHT22;11508;50.856;4.380;2022-12-07T12:26:24;6.80;99.90
22682;DHT22;11508;50.856;4.380;2022-12-07T12:28:56;7.00;99.90
22682;DHT22;11508;50.856;4.380;2022-12-07T12:34:00;7.10;99.90
22682;DHT22;11508;50.856;4.380;2022-12-07T12:36:44;7.00;99.90
22682;DHT22;11508;50.856;4.380;2022-12-07T12:39:15;6.90;99.90
22682;DHT22;11508;50.856;4.380;2022-12-07T12:46:50;7.10;99.90
22682;DHT22;11508;50.856;4.380;2022-12-07T12:51:43;7.20;99.90
22682;DHT22;11508;50.856;4.380;2022-12-07T13:02:09;7.00;99.90
22682;DHT22;11508;50.856;4.380;2022-12-07T13:04:51;7.10;99.90
22682;DHT22;11508;50.856;4.380;2022-12-07T13:15:53;7.40;99.90
22682;DHT22;11508;50.856;4.380;2022-12-07T13:21:01;7.50;99.90
22682;DHT22;11508;50.856;4.380;2022-12-07T13:28:45;7.80;99.90
22682;DHT22;11508;50.856;4.380;2022-12-07T13:31:16;7.80;99.90
22682;DHT22;11508;50.856;4.380;2022-12-07T13:33:46;7.80;99.90
22682;DHT22;11508;50.856;4.380;2022-12-07T13:36:26;7.70;99.90
22682;DHT22;11508;50.856;4.380;2022-12-07T13:38:58;7.70;99.90
22682;DHT22;11508;50.856;4.380;2022-12-07T13:41:29;7.80;99.90
22682;DHT22;11508;50.856;4.380;2022-12-07T13:44:14;8.00;99.90
22682;DHT22;11508;50.856;4.380;2022-12-07T13:49:46;8.20;99.90
22682;DHT22;11508;50.856;4.380;2022-12-07T13:55:05;8.10;99.90
22682;DHT22;11508;50.856;4.380;2022-12-07T13:57:35;7.80;99.90
22682;DHT22;11508;50.856;4.380;2022-12-07T14:00:03;7.60;99.90
22682;DHT22;11508;50.856;4.380;2022-12-07T14:02:34;7.40;99.90
22682;DHT22;11508;50.856;4.380;2022-12-07T14:05:09;7.40;99.90
22682;DHT22;11508;50.856;4.380;2022-12-07T14:08:02;7.40;99.90
22682;DHT22;11508;50.856;4.380;2022-12-07T14:10:32;7.30;99.90
22682;DHT22;11508;50.856;4.380;2022-12-07T14:12:59;7.40;99.90
22682;DHT22;11508;50.856;4.380;2022-12-07T14:15:32;7.30;99.90
22682;DHT22;11508;50.856;4.380;2022-12-07T14:17:59;7.40;99.90
22682;DHT22;11508;50.856;4.380;2022-12-07T14:20:37;7.40;99.90
22682;DHT22;11508;50.856;4.380;2022-12-07T14:23:04;7.40;99.90
22682;DHT22;11508;50.856;4.380;2022-12-07T14:25:50;7.40;99.90
22682;DHT22;11508;50.856;4.380;2022-12-07T14:28:31;7.30;99.90
22682;DHT22;11508;50.856;4.380;2022-12-07T14:30:57;7.10;99.90
22682;DHT22;11508;50.856;4.380;2022-12-07T14:33:24;7.00;99.90
22682;DHT22;11508;50.856;4.380;2022-12-07T14:35:50;7.20;99.90
22682;DHT22;11508;50.856;4.380;2022-12-07T14:38:24;7.20;99.90
22682;DHT22;11508;50.856;4.380;2022-12-07T14:40:51;7.00;99.90
22682;DHT22;11508;50.856;4.380;2022-12-07T14:43:17;7.10;99.90
22682;DHT22;11508;50.856;4.380;2022-12-07T14:45:44;7.00;99.90
22682;DHT22;11508;50.856;4.380;2022-12-07T14:48:14;7.00;99.90
22682;DHT22;11508;50.856;4.380;2022-12-07T14:50:45;6.80;99.90
22682;DHT22;11508;50.856;4.380;2022-12-07T14:53:16;6.70;99.90
22682;DHT22;11508;50.856;4.380;2022-12-07T14:55:43;6.50;99.90
22682;DHT22;11508;50.856;4.380;2022-12-07T14:58:13;6.70;99.90
22682;DHT22;11508;50.856;4.380;2022-12-07T15:00:39;6.70;99.90
22682;DHT22;11508;50.856;4.380;2022-12-07T15:03:05;6.80;99.90
22682;DHT22;11508;50.856;4.380;2022-12-07T15:05:31;6.90;99.90
22682;DHT22;11508;50.856;4.380;2022-12-07T15:07:57;7.10;99.90
22682;DHT22;11508;50.856;4.380;2022-12-07T15:10:28;7.10;99.90
22682;DHT22;11508;50.856;4.380;2022-12-07T15:12:59;7.20;99.90
22682;DHT22;11508;50.856;4.380;2022-12-07T15:15:43;7.10;99.90
22682;DHT22;11508;50.856;4.380;2022-12-07T15:18:09;7.10;99.90
22682;DHT22;11508;50.856;4.380;2022-12-07T15:20:35;7.10;99.90
22682;DHT22;11508;50.856;4.380;2022-12-07T15:23:01;7.20;99.90
22682;DHT22;11508;50.856;4.380;2022-12-07T15:25:27;7.20;99.90
22682;DHT22;11508;50.856;4.380;2022-12-07T15:27:52;7.10;99.90
22682;DHT22;11508;50.856;4.380;2022-12-07T15:30:18;7.20;99.90
22682;DHT22;11508;50.856;4.380;2022-12-07T15:32:44;7.10;99.90
22682;DHT22;11508;50.856;4.380;2022-12-07T15:35:14;7.20;99.90
22682;DHT22;11508;50.856;4.380;2022-12-07T15:37:40;7.20;99.90
22682;DHT22;11508;50.856;4.380;2022-12-07T15:40:06;7.10;99.90
22682;DHT22;11508;50.856;4.380;2022-12-07T15:42:32;7.10;99.90
22682;DHT22;11508;50.856;4.380;2022-12-07T15:44:58;6.90;99.90
22682;DHT22;11508;50.856;4.380;2022-12-07T15:47:31;6.90;99.90
22682;DHT22;11508;50.856;4.380;2022-12-07T15:49:57;6.90;99.90
22682;DHT22;11508;50.856;4.380;2022-12-07T15:52:23;6.80;99.90
22682;DHT22;11508;50.856;4.380;2022-12-07T15:54:49;6.70;99.90
22682;DHT22;11508;50.856;4.380;2022-12-07T15:57:14;6.60;99.90
22682;DHT22;11508;50.856;4.380;2022-12-07T15:59:40;6.60;99.90
22682;DHT22;11508;50.856;4.380;2022-12-07T16:02:08;6.50;99.90
22682;DHT22;11508;50.856;4.380;2022-12-07T16:04:35;6.50;99.90
22682;DHT22;11508;50.856;4.380;2022-12-07T16:07:02;6.50;99.90
22682;DHT22;11508;50.856;4.380;2022-12-07T16:09:28;6.40;99.90
22682;DHT22;11508;50.856;4.380;2022-12-07T16:11:54;6.40;99.90
22682;DHT22;11508;50.856;4.380;2022-12-07T16:14:20;6.50;99.90
22682;DHT22;11508;50.856;4.380;2022-12-07T16:16:46;6.50;99.90
22682;DHT22;11508;50.856;4.380;2022-12-07T16:19:12;6.50;99.90
22682;DHT22;11508;50.856;4.380;2022-12-07T16:21:38;6.40;99.90
22682;DHT22;11508;50.856;4.380;2022-12-07T16:24:04;6.30;99.90
22682;DHT22;11508;50.856;4.380;2022-12-07T16:26:31;6.20;99.90
22682;DHT22;11508;50.856;4.380;2022-12-07T16:28:57;6.20;99.90
22682;DHT22;11508;50.856;4.380;2022-12-07T16:31:26;6.20;99.90
22682;DHT22;11508;50.856;4.380;2022-12-07T16:33:57;6.40;99.90
22682;DHT22;11508;50.856;4.380;2022-12-07T16:36:24;6.40;99.90
22682;DHT22;11508;50.856;4.380;2022-12-07T16:38:51;6.30;99.90
22682;DHT22;11508;50.856;4.380;2022-12-07T16:41:17;6.30;99.90
22682;DHT22;11508;50.856;4.380;2022-12-07T16:43:43;6.30;99.90
22682;DHT22;11508;50.856;4.380;2022-12-07T16:46:09;6.40;99.90
22682;DHT22;11508;50.856;4.380;2022-12-07T16:48:37;6.50;99.90
22682;DHT22;11508;50.856;4.380;2022-12-07T16:51:08;6.50;99.90
22682;DHT22;11508;50.856;4.380;2022-12-07T16:53:36;6.40;99.90
22682;DHT22;11508;50.856;4.380;2022-12-07T16:56:02;6.40;99.90
22682;DHT22;11508;50.856;4.380;2022-12-07T16:58:28;6.50;99.90
22682;DHT22;11508;50.856;4.380;2022-12-07T17:00:54;6.40;99.90
22682;DHT22;11508;50.856;4.380;2022-12-07T17:03:20;6.50;99.90
22682;DHT22;11508;50.856;4.380;2022-12-07T17:05:46;6.40;99.90
22682;DHT22;11508;50.856;4.380;2022-12-07T17:08:13;6.50;99.90
22682;DHT22;11508;50.856;4.380;2022-12-07T17:10:41;6.60;99.90
22682;DHT22;11508;50.856;4.380;2022-12-07T17:13:08;6.70;99.90
22682;DHT22;11508;50.856;4.380;2022-12-07T17:16:02;6.80;99.90
22682;DHT22;11508;50.856;4.380;2022-12-07T17:18:33;6.60;99.90
22682;DHT22;11508;50.856;4.380;2022-12-07T17:21:08;6.50;99.90
22682;DHT22;11508;50.856;4.380;2022-12-07T17:23:38;6.50;99.90
22682;DHT22;11508;50.856;4.380;2022-12-07T17:26:15;6.40;99.90
22682;DHT22;11508;50.856;4.380;2022-12-07T17:28:41;6.30;99.90
22682;DHT22;11508;50.856;4.380;2022-12-07T17:31:09;6.20;99.90
22682;DHT22;11508;50.856;4.380;2022-12-07T17:33:36;6.20;99.90
22682;DHT22;11508;50.856;4.380;2022-12-07T17:36:13;6.40;99.90
22682;DHT22;11508;50.856;4.380;2022-12-07T17:38:39;6.50;99.90
22682;DHT22;11508;50.856;4.380;2022-12-07T17:41:14;6.60;99.90
22682;DHT22;11508;50.856;4.380;2022-12-07T17:43:59;6.50;99.90
22682;DHT22;11508;50.856;4.380;2022-12-07T17:46:25;6.30;99.90
22682;DHT22;11508;50.856;4.380;2022-12-07T17:48:53;6.30;99.90
22682;DHT22;11508;50.856;4.380;2022-12-07T17:51:19;6.10;99.90
22682;DHT22;11508;50.856;4.380;2022-12-07T17:54:03;6.00;99.90
22682;DHT22;11508;50.856;4.380;2022-12-07T17:56:29;6.00;99.90
22682;DHT22;11508;50.856;4.380;2022-12-07T17:58:55;6.00;99.90
22682;DHT22;11508;50.856;4.380;2022-12-07T18:01:21;6.20;99.90
22682;DHT22;11508;50.856;4.380;2022-12-07T18:03:47;6.20;99.90
22682;DHT22;11508;50.856;4.380;2022-12-07T18:06:12;6.20;99.90